createdAt,value
2019-01-16T00:00:05.031Z,42.8
2019-01-16T00:00:54.121Z,43.2
2019-01-16T00:01:44.506Z,43.2
2019-01-16T00:02:35.067Z,42.9
2019-01-16T00:03:25.273Z,42.5
2019-01-16T00:04:14.383Z,41.9
2019-01-16T00:05:04.959Z,41.4
2019-01-16T00:05:54.464Z,40.8
2019-01-16T00:06:46.006Z,40.3
2019-01-16T00:07:35.744Z,39.8
2019-01-16T00:08:25.456Z,39.6
2019-01-16T00:09:14.409Z,39.5
2019-01-16T00:10:05.131Z,39.5
2019-01-16T00:10:54.246Z,39.6
2019-01-16T00:11:45.415Z,41.2
2019-01-16T00:12:34.958Z,42.4
2019-01-16T00:13:25.500Z,42.9
2019-01-16T00:14:14.738Z,43
2019-01-16T00:15:05.433Z,42.8
2019-01-16T00:15:55.475Z,42.4
2019-01-16T00:16:45.288Z,42
2019-01-16T00:17:35.365Z,41.5
2019-01-16T00:18:26.644Z,40.9
2019-01-16T00:19:15.933Z,40.4
2019-01-16T00:20:05.775Z,40
2019-01-16T00:20:56.605Z,39.8
2019-01-16T00:21:46.075Z,39.8
2019-01-16T00:22:36.460Z,40.8
2019-01-16T00:23:25.967Z,42.4
2019-01-16T00:24:16.533Z,43
2019-01-16T00:25:05.769Z,43.2
2019-01-16T00:25:56.930Z,43
2019-01-16T00:26:46.145Z,42.7
2019-01-16T00:27:36.755Z,42.2
2019-01-16T00:28:26.260Z,41.6
2019-01-16T00:29:16.869Z,41.1
2019-01-16T00:30:07.022Z,40.5
2019-01-16T00:30:56.982Z,40.1
2019-01-16T00:31:47.326Z,39.8
2019-01-16T00:32:36.852Z,39.7
2019-01-16T00:33:27.504Z,39.9
2019-01-16T00:34:16.981Z,41.8
2019-01-16T00:35:07.080Z,42.7
2019-01-16T00:35:55.986Z,42.9
2019-01-16T00:36:46.866Z,42.8
2019-01-16T00:37:36.679Z,42.6
2019-01-16T00:38:27.009Z,42.1
2019-01-16T00:39:17.067Z,41.6
2019-01-16T00:40:06.834Z,41.1
2019-01-16T00:40:57.408Z,40.5
2019-01-16T00:41:47.174Z,40.1
2019-01-16T00:42:37.248Z,39.8
2019-01-16T00:43:26.761Z,39.7
2019-01-16T00:44:17.329Z,39.7
2019-01-16T00:45:07.109Z,40.9
2019-01-16T00:45:57.148Z,42.3
2019-01-16T00:46:47.763Z,42.9
2019-01-16T00:47:37.611Z,42.9
2019-01-16T00:48:33.028Z,42.8
2019-01-16T00:49:18.305Z,42.4
2019-01-16T00:50:07.236Z,41.9
2019-01-16T00:50:58.111Z,41.4
2019-01-16T00:51:48.383Z,40.9
2019-01-16T00:52:37.885Z,40.4
2019-01-16T00:53:27.753Z,40.1
2019-01-16T00:54:18.315Z,39.9
2019-01-16T00:55:08.951Z,39.8
2019-01-16T00:55:58.979Z,41.3
2019-01-16T00:56:47.605Z,42.6
2019-01-16T00:57:38.803Z,43.2
2019-01-16T00:58:28.072Z,43.2
2019-01-16T00:59:19.865Z,43.1
2019-01-16T01:00:08.188Z,42.7
2019-01-16T01:00:58.761Z,42.2
2019-01-16T01:01:48.536Z,41.7
2019-01-16T01:02:38.553Z,41.1
2019-01-16T01:03:28.942Z,40.6
2019-01-16T01:04:18.680Z,40.2
2019-01-16T01:05:08.480Z,39.9
2019-01-16T01:05:58.307Z,39.9
2019-01-16T01:06:48.575Z,41.1
2019-01-16T01:07:39.172Z,42.5
2019-01-16T01:08:29.272Z,43.1
2019-01-16T01:09:19.650Z,43.1
2019-01-16T01:10:10.030Z,42.9
2019-01-16T01:10:59.414Z,42.6
2019-01-16T01:11:48.980Z,42.1
2019-01-16T01:12:39.010Z,41.6
2019-01-16T01:13:29.300Z,41.1
2019-01-16T01:14:20.205Z,40.6
2019-01-16T01:15:10.319Z,40.1
2019-01-16T01:15:59.735Z,39.9
2019-01-16T01:16:49.829Z,39.8
2019-01-16T01:17:39.852Z,39.8
2019-01-16T01:18:45.299Z,41.1
2019-01-16T01:19:19.967Z,42.7
2019-01-16T01:20:09.770Z,43
2019-01-16T01:21:00.077Z,43.1
2019-01-16T01:21:49.931Z,42.9
2019-01-16T01:22:40.265Z,42.6
2019-01-16T01:23:29.411Z,42.1
2019-01-16T01:24:20.067Z,41.6
2019-01-16T01:25:10.649Z,41
2019-01-16T01:26:00.789Z,40.5
2019-01-16T01:26:51.021Z,40.1
2019-01-16T01:27:40.559Z,39.9
2019-01-16T01:28:30.616Z,39.8
2019-01-16T01:29:20.636Z,39.8
2019-01-16T01:30:11.025Z,41.4
2019-01-16T01:31:00.886Z,42.6
2019-01-16T01:31:50.556Z,43.1
2019-01-16T01:32:41.136Z,43.1
2019-01-16T01:33:31.228Z,42.9
2019-01-16T01:34:22.913Z,42.6
2019-01-16T01:35:11.070Z,42.1
2019-01-16T01:36:01.380Z,41.5
2019-01-16T01:36:50.869Z,41
2019-01-16T01:37:41.783Z,40.5
2019-01-16T01:38:32.104Z,40.2
2019-01-16T01:39:21.028Z,40
2019-01-16T01:40:11.663Z,39.9
2019-01-16T01:41:00.873Z,40.6
2019-01-16T01:41:50.952Z,42.2
2019-01-16T01:42:41.563Z,42.9
2019-01-16T01:43:30.785Z,43
2019-01-16T01:44:21.450Z,42.9
2019-01-16T01:45:11.495Z,42.5
2019-01-16T01:46:02.356Z,42
2019-01-16T01:46:51.562Z,41.5
2019-01-16T01:47:41.132Z,40.9
2019-01-16T01:48:31.952Z,40.4
2019-01-16T01:49:22.632Z,39.9
2019-01-16T01:50:11.860Z,39.7
2019-01-16T01:51:01.614Z,39.6
2019-01-16T01:51:51.944Z,39.6
2019-01-16T01:52:41.674Z,39.7
2019-01-16T01:53:32.839Z,41.1
2019-01-16T01:54:22.886Z,42.5
2019-01-16T01:55:12.694Z,43.1
2019-01-16T01:56:02.733Z,43.3
2019-01-16T01:56:52.249Z,43.1
2019-01-16T01:57:41.753Z,42.8
2019-01-16T01:58:32.111Z,42.4
2019-01-16T01:59:22.434Z,41.8
2019-01-16T02:00:14.846Z,41.3
2019-01-16T02:01:02.817Z,40.7
2019-01-16T02:01:52.291Z,40.3
2019-01-16T02:02:43.020Z,39.9
2019-01-16T02:03:32.971Z,39.8
2019-01-16T02:04:22.482Z,40.8
2019-01-16T02:05:12.011Z,42.3
2019-01-16T02:06:02.869Z,42.9
2019-01-16T02:06:53.624Z,43
2019-01-16T02:07:43.564Z,42.8
2019-01-16T02:08:33.567Z,42.4
2019-01-16T02:09:23.623Z,42
2019-01-16T02:10:13.394Z,41.4
2019-01-16T02:11:02.981Z,40.9
2019-01-16T02:11:52.684Z,40.3
2019-01-16T02:12:43.909Z,39.9
2019-01-16T02:13:33.676Z,39.6
2019-01-16T02:14:23.213Z,39.5
2019-01-16T02:15:12.928Z,39.5
2019-01-16T02:16:03.828Z,40.2
2019-01-16T02:16:53.303Z,42
2019-01-16T02:17:43.415Z,42.8
2019-01-16T02:18:32.946Z,43.1
2019-01-16T02:19:24.415Z,43.1
2019-01-16T02:20:14.435Z,42.8
2019-01-16T02:21:03.660Z,42.4
2019-01-16T02:21:53.448Z,41.9
2019-01-16T02:22:43.492Z,41.3
2019-01-16T02:23:33.305Z,40.8
2019-01-16T02:24:23.633Z,40.3
2019-01-16T02:25:13.748Z,40
2019-01-16T02:26:03.809Z,39.9
2019-01-16T02:26:53.860Z,39.9
2019-01-16T02:27:45.458Z,41.4
2019-01-16T02:28:34.127Z,42.6
2019-01-16T02:29:25.005Z,43.1
2019-01-16T02:30:14.372Z,43.2
2019-01-16T02:31:05.177Z,42.9
2019-01-16T02:31:54.914Z,42.6
2019-01-16T02:32:45.583Z,42.1
2019-01-16T02:33:34.535Z,41.6
2019-01-16T02:34:25.373Z,41.1
2019-01-16T02:35:15.139Z,40.6
2019-01-16T02:36:05.465Z,40.3
2019-01-16T02:36:55.925Z,40.1
2019-01-16T02:37:44.904Z,41.4
2019-01-16T02:38:35.121Z,42.6
2019-01-16T02:39:26.029Z,43.2
2019-01-16T02:40:15.007Z,43.2
2019-01-16T02:41:04.584Z,43
2019-01-16T02:41:54.609Z,42.6
2019-01-16T02:42:45.191Z,42.1
2019-01-16T02:43:35.974Z,41.6
2019-01-16T02:44:25.538Z,41
2019-01-16T02:45:15.823Z,40.5
2019-01-16T02:46:05.440Z,40.1
2019-01-16T02:46:55.234Z,39.8
2019-01-16T02:47:45.171Z,39.7
2019-01-16T02:48:35.138Z,40.1
2019-01-16T02:49:25.426Z,42
2019-01-16T02:50:16.471Z,42.9
2019-01-16T02:51:06.276Z,43.2
2019-01-16T02:51:55.773Z,43.1
2019-01-16T02:52:46.928Z,42.9
2019-01-16T02:53:35.083Z,42.4
2019-01-16T02:54:26.847Z,41.9
2019-01-16T02:55:16.006Z,41.4
2019-01-16T02:56:06.096Z,40.8
2019-01-16T02:56:56.171Z,40.4
2019-01-16T02:57:46.234Z,40.1
2019-01-16T02:58:36.807Z,39.9
2019-01-16T02:59:26.259Z,39.9
2019-01-16T03:00:16.573Z,41.8
2019-01-16T03:01:07.158Z,42.9
2019-01-16T03:01:57.327Z,43.3
2019-01-16T03:02:47.320Z,43.3
2019-01-16T03:03:36.516Z,43
2019-01-16T03:04:27.417Z,42.6
2019-01-16T03:05:16.840Z,42.1
2019-01-16T03:08:50.489Z,40.1
2019-01-16T03:09:40.745Z,39.9
2019-01-16T03:10:30.796Z,40.4
2019-01-16T03:11:21.338Z,42.1
2019-01-16T03:12:11.528Z,42.9
2019-01-16T03:13:01.192Z,43.1
2019-01-16T03:13:50.757Z,42.9
2019-01-16T03:14:41.727Z,42.7
2019-01-16T03:15:31.650Z,42.2
2019-01-16T03:16:21.139Z,41.6
2019-01-16T03:17:11.235Z,41.1
2019-01-16T03:18:01.269Z,40.6
2019-01-16T03:18:51.849Z,40.1
2019-01-16T03:19:41.562Z,39.9
2019-01-16T03:20:31.784Z,39.8
2019-01-16T03:21:22.342Z,39.8
2019-01-16T03:22:11.609Z,40.9
2019-01-16T03:23:02.443Z,42.4
2019-01-16T03:23:51.700Z,43.3
2019-01-16T03:24:41.809Z,43.5
2019-01-16T03:25:32.046Z,43.4
2019-01-16T03:26:22.201Z,43.2
2019-01-16T03:27:11.886Z,42.8
2019-01-16T03:28:02.766Z,42.3
2019-01-16T03:28:52.541Z,41.7
2019-01-16T03:29:42.042Z,41.2
2019-01-16T03:30:33.081Z,40.8
2019-01-16T03:31:22.558Z,40.4
2019-01-16T03:32:13.441Z,40.2
2019-01-16T03:33:02.942Z,41.4
2019-01-16T03:33:51.763Z,42.6
2019-01-16T03:34:42.233Z,43.2
2019-01-16T03:35:33.001Z,43.2
2019-01-16T03:36:21.838Z,43
2019-01-16T03:37:12.548Z,42.6
2019-01-16T03:38:03.435Z,42.2
2019-01-16T03:38:53.045Z,41.6
2019-01-16T03:39:42.413Z,41
2019-01-16T03:40:33.362Z,40.5
2019-01-16T03:41:23.121Z,40.1
2019-01-16T03:42:13.214Z,39.9
2019-01-16T03:43:03.250Z,39.8
2019-01-16T03:43:52.992Z,39.9
2019-01-16T03:44:42.893Z,40.8
2019-01-16T03:45:34.025Z,42.3
2019-01-16T03:46:23.729Z,43.1
2019-01-16T03:47:13.555Z,43.2
2019-01-16T03:48:03.622Z,43.1
2019-01-16T03:48:53.847Z,42.8
2019-01-16T03:49:44.026Z,42.3
2019-01-16T03:50:33.750Z,41.8
2019-01-16T03:51:23.807Z,41.3
2019-01-16T03:52:14.470Z,40.8
2019-01-16T03:53:03.925Z,40.3
2019-01-16T03:53:53.357Z,40.1
2019-01-16T03:54:44.345Z,39.9
2019-01-16T03:55:33.917Z,40.1
2019-01-16T03:56:23.567Z,42
2019-01-16T03:57:13.909Z,43
2019-01-16T03:58:04.789Z,43.4
2019-01-16T03:58:53.990Z,43.4
2019-01-16T03:59:44.432Z,43.2
2019-01-16T04:00:34.945Z,42.8
2019-01-16T04:01:24.514Z,42.3
2019-01-16T04:02:15.115Z,41.8
2019-01-16T04:03:04.861Z,41.2
2019-01-16T04:03:54.066Z,40.8
2019-01-16T04:04:44.745Z,40.4
2019-01-16T04:05:35.301Z,40.6
2019-01-16T04:06:25.346Z,42.3
2019-01-16T04:07:14.819Z,43
2019-01-16T04:08:04.637Z,43.1
2019-01-16T04:08:54.702Z,42.9
2019-01-16T04:09:45.311Z,42.6
2019-01-16T04:10:35.084Z,42.1
2019-01-16T04:11:25.439Z,41.6
2019-01-16T04:12:14.793Z,41
2019-01-16T04:13:05.519Z,40.4
2019-01-16T04:13:55.012Z,39.9
2019-01-16T04:14:45.353Z,39.6
2019-01-16T04:15:35.956Z,39.4
2019-01-16T04:16:25.886Z,39.3
2019-01-16T04:17:14.816Z,39.4
2019-01-16T04:18:05.391Z,39.6
2019-01-16T04:18:55.531Z,40.4
2019-01-16T04:19:45.988Z,42.2
2019-01-16T04:20:36.096Z,43.1
2019-01-16T04:21:25.918Z,43.4
2019-01-16T04:22:15.715Z,43.4
2019-01-16T04:23:05.804Z,43.2
2019-01-16T04:23:55.824Z,42.8
2019-01-16T04:24:45.587Z,42.3
2019-01-16T04:25:36.058Z,41.7
2019-01-16T04:26:26.510Z,41.1
2019-01-16T04:27:16.120Z,40.7
2019-01-16T04:28:06.266Z,40.3
2019-01-16T04:28:55.857Z,40.1
2019-01-16T04:29:46.402Z,41.8
2019-01-16T04:30:35.460Z,42.8
2019-01-16T04:31:26.517Z,43.2
2019-01-16T04:32:16.330Z,43.1
2019-01-16T04:33:06.426Z,42.8
2019-01-16T04:33:56.227Z,42.4
2019-01-16T04:34:46.515Z,41.8
2019-01-16T04:35:36.352Z,41.3
2019-01-16T04:36:26.884Z,40.8
2019-01-16T04:37:16.897Z,40.2
2019-01-16T04:38:06.557Z,39.8
2019-01-16T04:38:57.049Z,39.6
2019-01-16T04:39:47.102Z,39.6
2019-01-16T04:40:36.344Z,39.6
2019-01-16T04:41:26.989Z,40.3
2019-01-16T04:42:17.112Z,42.1
2019-01-16T04:43:06.876Z,43.1
2019-01-16T04:43:56.264Z,43.4
2019-01-16T04:44:47.236Z,43.4
2019-01-16T04:45:36.976Z,43.1
2019-01-16T04:46:27.565Z,42.8
2019-01-16T04:47:17.589Z,42.3
2019-01-16T04:48:06.896Z,41.7
2019-01-16T04:48:57.500Z,41.2
2019-01-16T04:49:47.300Z,40.6
2019-01-16T04:50:37.553Z,40.3
2019-01-16T04:51:27.662Z,40
2019-01-16T04:52:17.668Z,40.3
2019-01-16T04:53:07.702Z,42.1
2019-01-16T04:53:57.863Z,42.9
2019-01-16T04:54:47.583Z,43.1
2019-01-16T04:55:37.863Z,43
2019-01-16T04:56:27.453Z,42.7
2019-01-16T04:57:17.453Z,42.3
2019-01-16T04:58:08.084Z,41.7
2019-01-16T04:58:58.439Z,41.1
2019-01-16T04:59:47.609Z,40.6
2019-01-16T05:00:38.313Z,40.1
2019-01-16T05:01:28.298Z,39.8
2019-01-16T05:02:18.645Z,39.6
2019-01-16T05:03:08.326Z,39.6
2019-01-16T05:03:58.434Z,40
2019-01-16T05:04:48.782Z,41.9
2019-01-16T05:05:37.455Z,42.9
2019-01-16T05:06:28.623Z,43.3
2019-01-16T05:07:18.710Z,43.3
2019-01-16T05:08:08.190Z,43.1
2019-01-16T05:08:59.597Z,42.7
2019-01-16T05:09:49.050Z,42.2
2019-01-16T05:10:38.830Z,41.6
2019-01-16T05:11:27.908Z,41.1
2019-01-16T05:12:19.039Z,40.6
2019-01-16T05:13:09.812Z,40.3
2019-01-16T05:13:59.605Z,40
2019-01-16T05:14:49.417Z,40.9
2019-01-16T05:15:39.712Z,42.5
2019-01-16T05:16:29.495Z,43.1
2019-01-16T05:17:19.284Z,43.3
2019-01-16T05:18:09.120Z,43.1
2019-01-16T05:18:59.701Z,42.8
2019-01-16T05:19:50.283Z,42.3
2019-01-16T05:20:39.298Z,41.8
2019-01-16T05:21:29.117Z,41.1
2019-01-16T05:22:19.417Z,40.6
2019-01-16T05:23:09.761Z,40
2019-01-16T05:24:00.084Z,39.6
2019-01-16T05:24:50.332Z,39.4
2019-01-16T05:25:39.809Z,39.4
2019-01-16T05:26:32.709Z,39.4
2019-01-16T05:27:20.034Z,39.9
2019-01-16T05:28:10.564Z,41.8
2019-01-16T05:28:59.867Z,42.8
2019-01-16T05:29:50.821Z,43.3
2019-01-16T05:30:40.423Z,43.3
2019-01-16T05:31:30.524Z,43.1
2019-01-16T05:32:21.122Z,42.7
2019-01-16T05:33:10.614Z,42.2
2019-01-16T05:34:00.693Z,41.6
2019-01-16T05:34:51.261Z,41.1
2019-01-16T05:35:41.331Z,40.6
2019-01-16T05:36:30.841Z,40.3
2019-01-16T05:37:20.906Z,40.1
2019-01-16T05:38:11.261Z,41.6
2019-01-16T05:39:01.276Z,42.8
2019-01-16T05:39:50.801Z,43.3
2019-01-16T05:40:41.403Z,43.3
2019-01-16T05:41:31.188Z,43.1
2019-01-16T05:42:21.489Z,42.8
2019-01-16T05:43:11.018Z,42.3
2019-01-16T05:44:01.941Z,41.6
2019-01-16T05:44:51.980Z,41.1
2019-01-16T05:45:41.423Z,40.5
2019-01-16T05:46:31.715Z,40.1
2019-01-16T05:47:21.538Z,39.8
2019-01-16T05:48:11.940Z,39.7
2019-01-16T05:49:01.405Z,39.7
2019-01-16T05:49:56.323Z,41.7
2019-01-16T05:50:41.285Z,42.8
2019-01-16T05:51:31.890Z,43.1
2019-01-16T05:52:21.577Z,43.1
2019-01-16T05:53:11.742Z,42.9
2019-01-16T05:54:02.058Z,42.5
2019-01-16T05:54:51.047Z,42
2019-01-16T05:55:41.075Z,41.4
2019-01-16T05:56:31.642Z,40.9
2019-01-16T05:57:22.277Z,40.4
2019-01-16T05:58:12.582Z,40.1
2019-01-16T05:59:02.330Z,39.9
2019-01-16T05:59:52.364Z,41.3
2019-01-16T06:00:42.794Z,42.6
2019-01-16T06:01:32.780Z,43.3
2019-01-16T06:02:22.927Z,43.4
2019-01-16T06:03:13.127Z,43.2
2019-01-16T06:04:03.194Z,42.9
2019-01-16T06:06:50.789Z,41.3
2019-01-16T06:07:40.310Z,40.6
2019-01-16T06:08:31.477Z,40.1
2019-01-16T06:09:22.994Z,39.9
2019-01-16T06:10:11.625Z,39.8
2019-01-16T06:11:01.699Z,41.2
2019-01-16T06:11:51.636Z,42.4
2019-01-16T06:12:41.168Z,43
2019-01-16T06:13:30.955Z,43.1
2019-01-16T06:14:21.612Z,42.9
2019-01-16T06:15:11.597Z,42.5
2019-01-16T06:16:01.677Z,42.1
2019-01-16T06:16:51.715Z,41.5
2019-01-16T06:17:41.453Z,40.9
2019-01-16T06:18:31.649Z,40.4
2019-01-16T06:19:21.064Z,39.9
2019-01-16T06:20:11.927Z,39.2
2019-01-16T06:21:01.980Z,32.2
2019-01-16T06:21:52.025Z,28.1
2019-01-16T06:22:42.092Z,25.3
2019-01-16T06:23:32.284Z,23.9
2019-01-16T06:24:22.230Z,22.7
2019-01-16T06:25:12.144Z,21.9
2019-01-16T06:26:02.344Z,21.5
2019-01-16T06:26:51.867Z,21.3
2019-01-16T06:27:42.771Z,21.7
2019-01-16T06:28:32.859Z,21.9
2019-01-16T06:29:22.272Z,22.2
2019-01-16T06:30:12.867Z,22.1
2019-01-16T06:31:02.137Z,21.9
2019-01-16T06:31:51.689Z,22
2019-01-16T06:32:42.271Z,22
2019-01-16T06:33:32.679Z,22
2019-01-16T06:34:23.004Z,22
2019-01-16T06:35:13.254Z,22.1
2019-01-16T06:36:03.039Z,22.1
2019-01-16T06:36:52.349Z,22.1
2019-01-16T06:37:43.346Z,22.2
2019-01-16T06:38:33.400Z,22.3
2019-01-16T06:39:23.241Z,22.4
2019-01-16T06:40:13.256Z,22.4
2019-01-16T06:41:03.018Z,22.5
2019-01-16T06:41:52.903Z,22.5
2019-01-16T06:42:43.448Z,22.4
2019-01-16T06:43:33.458Z,22.4
2019-01-16T06:44:23.348Z,22.3
2019-01-16T06:45:12.758Z,22.2
2019-01-16T06:46:03.343Z,22
2019-01-16T06:46:54.025Z,21.9
2019-01-16T06:47:43.462Z,21.8
2019-01-16T06:48:33.306Z,21.8
2019-01-16T06:49:23.365Z,21.8
2019-01-16T06:50:21.507Z,22.1
2019-01-16T06:51:03.682Z,30.7
2019-01-16T06:51:54.302Z,34.9
2019-01-16T06:52:43.860Z,38.5
2019-01-16T06:53:33.872Z,41.2
2019-01-16T06:54:24.492Z,43.1
2019-01-16T06:55:14.045Z,44.3
2019-01-16T06:56:04.317Z,44.6
2019-01-16T06:56:54.417Z,43.8
2019-01-16T06:57:44.208Z,42.6
2019-01-16T06:58:34.210Z,41.6
2019-01-16T06:59:23.511Z,40.6
2019-01-16T07:00:14.889Z,39.8
2019-01-16T07:01:04.432Z,38.9
2019-01-16T07:01:54.493Z,38.1
2019-01-16T07:02:44.732Z,37.3
2019-01-16T07:03:34.614Z,36.5
2019-01-16T07:04:24.579Z,35.8
2019-01-16T07:06:50.647Z,33.7
2019-01-16T07:07:40.204Z,32.8
2019-01-16T07:08:30.058Z,32.2
2019-01-16T07:09:21.137Z,31.7
2019-01-16T07:10:10.701Z,31.2
2019-01-16T07:11:01.309Z,30.8
2019-01-16T07:11:50.826Z,30.4
2019-01-16T07:12:40.843Z,30
2019-01-16T07:13:31.676Z,29.6
2019-01-16T07:14:21.776Z,29.2
2019-01-16T07:15:11.064Z,28.8
2019-01-16T07:16:01.578Z,28.4
2019-01-16T07:16:51.338Z,28.1
2019-01-16T07:17:41.951Z,27.7
2019-01-16T07:18:31.473Z,27.4
2019-01-16T07:19:22.081Z,27.1
2019-01-16T07:20:19.574Z,26.8
2019-01-16T07:21:01.619Z,26.6
2019-01-16T07:21:51.761Z,26.3
2019-01-16T07:22:42.018Z,26.1
2019-01-16T07:23:32.090Z,25.8
2019-01-16T07:24:21.933Z,25.6
2019-01-16T07:25:11.643Z,25.3
2019-01-16T07:26:02.525Z,25
2019-01-16T07:26:51.477Z,24.8
2019-01-16T07:27:42.660Z,24.5
2019-01-16T07:28:32.211Z,24.3
2019-01-16T07:29:22.002Z,24
2019-01-16T07:30:12.057Z,23.8
2019-01-16T07:31:01.819Z,23.6
2019-01-16T07:31:52.240Z,23.4
2019-01-16T07:32:42.002Z,23.1
2019-01-16T07:33:32.327Z,23
2019-01-16T07:34:22.320Z,22.8
2019-01-16T07:35:12.700Z,22.6
2019-01-16T07:36:02.452Z,22.4
2019-01-16T07:36:52.205Z,22.3
2019-01-16T07:37:42.264Z,22.1
2019-01-16T07:38:34.408Z,21.9
2019-01-16T07:39:23.423Z,21.8
2019-01-16T07:40:13.192Z,21.7
2019-01-16T07:41:03.052Z,21.6
2019-01-16T07:41:53.394Z,21.4
2019-01-16T07:42:51.264Z,21.4
2019-01-16T07:43:33.562Z,21.3
2019-01-16T07:44:22.969Z,21.2
2019-01-16T07:46:03.571Z,21.1
2019-01-16T07:46:54.722Z,20.9
2019-01-16T07:47:43.714Z,20.9
2019-01-16T07:48:34.244Z,20.8
2019-01-16T07:49:24.066Z,20.6
2019-01-16T07:50:21.659Z,20.6
2019-01-16T07:51:03.921Z,20.4
2019-01-16T07:51:54.034Z,20.3
2019-01-16T07:52:42.801Z,20.3
2019-01-16T07:53:34.384Z,20.2
2019-01-16T07:54:23.611Z,20
2019-01-16T07:55:14.504Z,19.9
2019-01-16T07:56:04.001Z,19.8
2019-01-16T07:56:54.103Z,19.8
2019-01-16T07:57:44.374Z,19.7
2019-01-16T07:58:34.443Z,19.6
2019-01-16T07:59:31.339Z,19.6
2019-01-16T08:00:14.567Z,19.7
2019-01-16T08:01:04.650Z,19.8
2019-01-16T08:01:54.683Z,19.7
2019-01-16T08:02:44.751Z,19.7
2019-01-16T08:03:34.768Z,19.6
2019-01-16T08:04:24.625Z,19.6
2019-01-16T08:05:14.886Z,19.4
2019-01-16T08:06:05.360Z,19.4
2019-01-16T08:06:54.734Z,19.4
2019-01-16T08:07:45.353Z,19.3
2019-01-16T08:08:35.118Z,19.3
2019-01-16T08:09:25.248Z,19.2
2019-01-16T08:10:14.405Z,19.2
2019-01-16T08:11:04.493Z,19.2
2019-01-16T08:11:55.143Z,19.1
2019-01-16T08:12:45.707Z,19.1
2019-01-16T08:13:35.807Z,19.1
2019-01-16T08:14:25.604Z,19
2019-01-16T08:15:15.316Z,18.9
2019-01-16T08:16:05.345Z,18.8
2019-01-16T08:18:36.112Z,18.6
2019-01-16T08:19:25.732Z,18.5
2019-01-16T08:20:15.695Z,18.4
2019-01-16T08:21:05.992Z,18.4
2019-01-16T08:21:54.935Z,18.4
2019-01-16T08:22:46.100Z,18.3
2019-01-16T08:23:36.132Z,18.3
2019-01-16T08:24:26.214Z,18.2
2019-01-16T08:25:16.306Z,18.2
2019-01-16T08:26:06.326Z,18.3
2019-01-16T08:26:56.154Z,18.4
2019-01-16T08:27:46.414Z,18.4
2019-01-16T08:28:36.501Z,18.4
2019-01-16T08:29:26.259Z,18.4
2019-01-16T08:30:16.616Z,18.4
2019-01-16T08:31:06.381Z,18.4
2019-01-16T08:31:56.436Z,18.4
2019-01-16T08:32:46.556Z,18.4
2019-01-16T08:33:36.248Z,18.3
2019-01-16T08:34:26.579Z,18.3
2019-01-16T08:35:17.212Z,18.3
2019-01-16T08:36:06.710Z,18.2
2019-01-16T08:36:56.599Z,18.2
2019-01-16T08:37:47.099Z,18.2
2019-01-16T08:38:36.970Z,18.1
2019-01-16T08:39:27.001Z,18.1
2019-01-16T08:40:17.389Z,18.1
2019-01-16T08:41:07.044Z,18.1
2019-01-16T08:41:57.116Z,18.1
2019-01-16T08:42:47.433Z,18.1
2019-01-16T08:43:37.821Z,18.1
2019-01-16T08:44:27.853Z,18
2019-01-16T08:45:17.633Z,18
2019-01-16T08:46:07.116Z,17.9
2019-01-16T08:46:57.985Z,18
2019-01-16T08:47:47.568Z,18
2019-01-16T08:48:37.610Z,18
2019-01-16T08:49:27.946Z,17.9
2019-01-16T08:50:17.681Z,17.9
2019-01-16T08:51:08.080Z,18
2019-01-16T08:51:57.892Z,17.9
2019-01-16T08:52:48.092Z,17.9
2019-01-16T08:53:40.040Z,17.9
2019-01-16T08:54:28.305Z,17.9
2019-01-16T08:55:18.560Z,18
2019-01-16T08:56:08.340Z,17.9
2019-01-16T08:56:58.679Z,17.8
2019-01-16T08:57:48.738Z,17.8
2019-01-16T08:58:38.892Z,17.8
2019-01-16T08:59:28.305Z,17.7
2019-01-16T09:00:18.910Z,17.7
2019-01-16T09:01:07.825Z,17.7
2019-01-16T09:01:58.733Z,17.6
2019-01-16T09:02:48.787Z,17.6
2019-01-16T09:03:39.145Z,17.5
2019-01-16T09:04:29.224Z,17.4
2019-01-16T09:05:18.719Z,17.6
2019-01-16T09:06:08.509Z,17.6
2019-01-16T09:06:59.404Z,17.8
2019-01-16T09:07:49.390Z,17.9
2019-01-16T09:08:38.334Z,18
2019-01-16T09:09:28.224Z,18.1
2019-01-16T09:10:18.795Z,18.1
2019-01-16T09:11:09.356Z,18.1
2019-01-16T09:11:59.196Z,18
2019-01-16T09:12:48.434Z,18
2019-01-16T09:13:39.811Z,18
2019-01-16T09:14:29.351Z,18
2019-01-16T09:15:19.406Z,18
2019-01-16T09:16:09.154Z,18
2019-01-16T09:16:59.329Z,18
2019-01-16T09:17:51.632Z,18
2019-01-16T09:18:39.896Z,17.9
2019-01-16T09:19:29.714Z,17.9
2019-01-16T09:20:20.246Z,17.9
2019-01-16T09:21:09.758Z,17.9
2019-01-16T09:22:00.371Z,17.9
2019-01-16T09:22:52.284Z,17.6
2019-01-16T09:23:39.927Z,17.5
2019-01-16T09:24:29.166Z,17.4
2019-01-16T09:25:20.126Z,17.4
2019-01-16T09:26:10.363Z,17.4
2019-01-16T09:27:00.123Z,17.4
2019-01-16T09:27:50.471Z,17.4
2019-01-16T09:28:40.230Z,17.4
2019-01-16T09:29:30.598Z,17.3
2019-01-16T09:30:20.133Z,17.3
2019-01-16T09:31:09.913Z,17.3
2019-01-16T09:32:00.538Z,17.3
2019-01-16T09:32:50.051Z,17.4
2019-01-16T09:33:40.375Z,17.6
2019-01-16T09:34:31.237Z,17.8
2019-01-16T09:35:20.508Z,17.8
2019-01-16T09:36:11.039Z,17.8
2019-01-16T09:37:01.187Z,17.8
2019-01-16T09:37:51.165Z,17.8
2019-01-16T09:38:40.662Z,17.8
2019-01-16T09:39:31.305Z,17.8
2019-01-16T09:40:21.615Z,17.8
2019-01-16T09:41:10.677Z,17.8
2019-01-16T09:42:01.204Z,17.8
2019-01-16T09:42:50.789Z,17.8
2019-01-16T09:43:41.557Z,17.8
2019-01-16T09:44:30.909Z,17.8
2019-01-16T09:45:21.537Z,17.8
2019-01-16T09:46:10.477Z,17.8
2019-01-16T09:47:01.074Z,17.8
2019-01-16T09:47:51.670Z,17.6
2019-01-16T09:48:40.316Z,17.4
2019-01-16T09:49:30.904Z,17.3
2019-01-16T09:50:21.519Z,17.3
2019-01-16T09:51:10.889Z,17.3
2019-01-16T09:52:01.709Z,17.3
2019-01-16T09:52:51.720Z,17.3
2019-01-16T09:53:42.031Z,17.3
2019-01-16T09:54:31.596Z,17.2
2019-01-16T09:55:21.856Z,17.2
2019-01-16T09:56:12.289Z,17.2
2019-01-16T09:57:01.970Z,17.1
2019-01-16T09:57:52.078Z,17.1
2019-01-16T10:00:21.698Z,17.2
2019-01-16T10:01:11.992Z,17.4
2019-01-16T10:02:01.744Z,17.5
2019-01-16T10:02:52.076Z,17.6
2019-01-16T10:03:42.901Z,17.6
2019-01-16T10:04:32.186Z,17.6
2019-01-16T10:05:22.798Z,17.6
2019-01-16T10:07:49.643Z,17.6
2019-01-16T10:08:40.288Z,17.6
2019-01-16T10:09:30.270Z,17.6
2019-01-16T10:10:20.703Z,17.7
2019-01-16T10:11:10.410Z,17.7
2019-01-16T10:12:01.016Z,17.7
2019-01-16T10:12:51.083Z,17.7
2019-01-16T10:13:40.575Z,17.6
2019-01-16T10:14:31.252Z,17.4
2019-01-16T10:15:20.752Z,17.3
2019-01-16T10:16:10.481Z,17.2
2019-01-16T10:17:01.630Z,17.1
2019-01-16T10:17:50.597Z,17.1
2019-01-16T10:18:40.412Z,17.1
2019-01-16T10:19:31.300Z,17.1
2019-01-16T10:22:00.847Z,16.9
2019-01-16T10:22:51.574Z,16.8
2019-01-16T10:23:41.512Z,16.8
2019-01-16T10:24:31.392Z,16.8
2019-01-16T10:25:21.947Z,16.7
2019-01-16T10:26:11.982Z,16.8
2019-01-16T10:27:51.352Z,17.1
2019-01-16T10:28:41.119Z,17.3
2019-01-16T10:29:31.446Z,17.3
2019-01-16T10:30:20.325Z,17.3
2019-01-16T10:31:11.456Z,17.3
2019-01-16T10:32:01.139Z,17.3
2019-01-16T10:32:51.690Z,17.3
2019-01-16T10:33:41.946Z,17.4
2019-01-16T10:34:32.553Z,17.3
2019-01-16T10:35:22.410Z,17.3
2019-01-16T10:36:12.149Z,17.3
2019-01-16T10:37:02.998Z,17.3
2019-01-16T10:37:52.513Z,17.3
2019-01-16T10:38:42.544Z,17.3
2019-01-16T10:39:32.936Z,17.3
2019-01-16T10:40:23.276Z,17.2
2019-01-16T10:41:12.469Z,17.2
2019-01-16T10:42:02.493Z,17.1
2019-01-16T10:42:52.261Z,17.1
2019-01-16T10:43:42.666Z,17.1
2019-01-16T10:44:32.163Z,17.1
2019-01-16T10:45:24.581Z,17.1
2019-01-16T10:46:12.038Z,17.1
2019-01-16T10:47:02.553Z,17.1
2019-01-16T10:47:53.004Z,17.1
2019-01-16T10:48:50.085Z,17.1
2019-01-16T10:50:22.318Z,16.9
2019-01-16T10:51:12.908Z,16.8
2019-01-16T10:52:03.020Z,16.8
2019-01-16T10:52:53.035Z,16.8
2019-01-16T10:53:43.290Z,16.7
2019-01-16T10:54:33.142Z,16.7
2019-01-16T10:55:23.127Z,16.6
2019-01-16T10:56:13.210Z,16.6
2019-01-16T10:57:03.350Z,16.6
2019-01-16T10:57:53.633Z,16.6
2019-01-16T10:58:43.915Z,16.6
2019-01-16T10:59:33.972Z,16.6
2019-01-16T11:00:24.296Z,16.6
2019-01-16T11:01:13.072Z,16.6
2019-01-16T11:02:04.407Z,16.9
2019-01-16T11:03:44.572Z,17.1
2019-01-16T11:04:33.197Z,17.2
2019-01-16T11:05:23.544Z,17.2
2019-01-16T11:06:12.727Z,17.2
2019-01-16T11:07:03.639Z,17.2
2019-01-16T11:07:54.274Z,17.1
2019-01-16T11:08:44.867Z,17.2
2019-01-16T11:09:34.382Z,17.2
2019-01-16T11:10:23.176Z,17.2
2019-01-16T11:11:23.056Z,17.3
2019-01-16T11:12:04.302Z,17.3
2019-01-16T11:12:54.912Z,17.3
2019-01-16T11:13:44.281Z,17.3
2019-01-16T11:15:25.025Z,16.8
2019-01-16T11:16:15.409Z,16.8
2019-01-16T11:17:06.116Z,16.7
2019-01-16T11:17:55.201Z,16.7
2019-01-16T11:18:45.288Z,16.7
2019-01-16T11:19:33.923Z,16.7
2019-01-16T11:20:24.579Z,16.6
2019-01-16T11:21:20.044Z,16.6
2019-01-16T11:22:05.475Z,16.6
2019-01-16T11:22:55.007Z,16.6
2019-01-16T11:23:45.605Z,16.6
2019-01-16T11:24:35.436Z,16.5
2019-01-16T11:25:25.758Z,16.4
2019-01-16T11:26:15.778Z,16.4